sensor_id;sensor_type;location;lat;lon;timestamp;pressure;altitude;pressure_sealevel;temperature;humidity
46023;BME280;31756;47.936;16.224;2022-11-04T00:01:52;97786.53;;;11.39;100.00
46023;BME280;31756;47.936;16.224;2022-11-04T00:04:20;97792.84;;;11.06;100.00
46023;BME280;31756;47.936;16.224;2022-11-04T00:06:47;97816.34;;;10.93;100.00
46023;BME280;31756;47.936;16.224;2022-11-04T00:09:19;97800.94;;;10.69;100.00
46023;BME280;31756;47.936;16.224;2022-11-04T00:11:46;97792.25;;;10.46;100.00
46023;BME280;31756;47.936;16.224;2022-11-04T00:14:30;97808.91;;;10.33;100.00
46023;BME280;31756;47.936;16.224;2022-11-04T00:16:57;97774.34;;;10.19;100.00
46023;BME280;31756;47.936;16.224;2022-11-04T00:19:41;97794.91;;;10.17;100.00
46023;BME280;31756;47.936;16.224;2022-11-04T00:22:26;97790.78;;;10.10;100.00
46023;BME280;31756;47.936;16.224;2022-11-04T00:25:12;97790.31;;;9.97;100.00
46023;BME280;31756;47.936;16.224;2022-11-04T00:28:11;97780.41;;;9.87;100.00
46023;BME280;31756;47.936;16.224;2022-11-04T00:30:57;97780.38;;;9.88;100.00
46023;BME280;31756;47.936;16.224;2022-11-04T00:33:44;97772.97;;;9.79;100.00
46023;BME280;31756;47.936;16.224;2022-11-04T00:36:10;97783.81;;;9.87;100.00
46023;BME280;31756;47.936;16.224;2022-11-04T00:38:35;97772.03;;;9.82;100.00
46023;BME280;31756;47.936;16.224;2022-11-04T00:41:01;97789.31;;;9.75;100.00
46023;BME280;31756;47.936;16.224;2022-11-04T00:43:26;97774.94;;;9.71;100.00
46023;BME280;31756;47.936;16.224;2022-11-04T00:45:52;97774.97;;;9.70;100.00
46023;BME280;31756;47.936;16.224;2022-11-04T00:48:17;97771.56;;;9.69;100.00
46023;BME280;31756;47.936;16.224;2022-11-04T00:50:43;97744.72;;;9.54;100.00
46023;BME280;31756;47.936;16.224;2022-11-04T00:53:08;97747.31;;;9.53;100.00
46023;BME280;31756;47.936;16.224;2022-11-04T00:55:34;97755.63;;;9.59;100.00
46023;BME280;31756;47.936;16.224;2022-11-04T00:58:00;97754.78;;;9.59;100.00
46023;BME280;31756;47.936;16.224;2022-11-04T01:00:25;97754.78;;;9.59;100.00
46023;BME280;31756;47.936;16.224;2022-11-04T01:02:51;97744.75;;;9.53;100.00
46023;BME280;31756;47.936;16.224;2022-11-04T01:05:16;97727.06;;;9.45;100.00
46023;BME280;31756;47.936;16.224;2022-11-04T01:07:42;97740.41;;;9.55;100.00
46023;BME280;31756;47.936;16.224;2022-11-04T01:10:08;97729.53;;;9.48;100.00
46023;BME280;31756;47.936;16.224;2022-11-04T01:12:34;97747.28;;;9.54;100.00
46023;BME280;31756;47.936;16.224;2022-11-04T01:15:00;97748.28;;;9.49;100.00
46023;BME280;31756;47.936;16.224;2022-11-04T01:17:25;97733.16;;;9.41;100.00
46023;BME280;31756;47.936;16.224;2022-11-04T01:19:51;97737.19;;;9.48;100.00
46023;BME280;31756;47.936;16.224;2022-11-04T01:22:20;97719.59;;;9.38;100.00
46023;BME280;31756;47.936;16.224;2022-11-04T01:24:45;97731.25;;;9.48;100.00
46023;BME280;31756;47.936;16.224;2022-11-04T01:27:11;97730.41;;;9.47;100.00
46023;BME280;31756;47.936;16.224;2022-11-04T01:29:37;97731.22;;;9.49;100.00
46023;BME280;31756;47.936;16.224;2022-11-04T01:32:02;97697.34;;;9.41;100.00
46023;BME280;31756;47.936;16.224;2022-11-04T01:34:28;97716.59;;;9.53;100.00
46023;BME280;31756;47.936;16.224;2022-11-04T01:36:53;97712.25;;;9.55;100.00
46023;BME280;31756;47.936;16.224;2022-11-04T01:39:19;97717.09;;;9.64;100.00
46023;BME280;31756;47.936;16.224;2022-11-04T01:41:45;97717.91;;;9.66;100.00
46023;BME280;31756;47.936;16.224;2022-11-04T01:49:41;97704.88;;;9.74;100.00
46023;BME280;31756;47.936;16.224;2022-11-04T01:52:13;97697.16;;;9.75;100.00
46023;BME280;31756;47.936;16.224;2022-11-04T01:54:44;97703.63;;;9.87;100.00
46023;BME280;31756;47.936;16.224;2022-11-04T01:57:16;97699.34;;;9.87;100.00
46023;BME280;31756;47.936;16.224;2022-11-04T01:59:43;97701.63;;;9.96;100.00
46023;BME280;31756;47.936;16.224;2022-11-04T02:02:09;97698.16;;;9.97;100.00
46023;BME280;31756;47.936;16.224;2022-11-04T02:04:36;97695.50;;;10.00;100.00
46023;BME280;31756;47.936;16.224;2022-11-04T02:07:05;97688.84;;;9.95;100.00
46023;BME280;31756;47.936;16.224;2022-11-04T02:09:33;97685.34;;;9.97;100.00
46023;BME280;31756;47.936;16.224;2022-11-04T02:11:59;97676.75;;;10.00;100.00
46023;BME280;31756;47.936;16.224;2022-11-04T02:14:45;97677.47;;;10.03;100.00
46023;BME280;31756;47.936;16.224;2022-11-04T02:22:29;97670.66;;;10.04;100.00
46023;BME280;31756;47.936;16.224;2022-11-04T02:30:17;97651.75;;;10.06;100.00
46023;BME280;31756;47.936;16.224;2022-11-04T02:41:37;97627.31;;;9.98;100.00
46023;BME280;31756;47.936;16.224;2022-11-04T02:44:21;97631.19;;;10.09;100.00
46023;BME280;31756;47.936;16.224;2022-11-04T02:46:56;97631.88;;;10.15;100.00
46023;BME280;31756;47.936;16.224;2022-11-04T02:52:06;97619.94;;;10.15;100.00
46023;BME280;31756;47.936;16.224;2022-11-04T02:54:52;97639.19;;;10.27;100.00
46023;BME280;31756;47.936;16.224;2022-11-04T02:57:26;97637.50;;;10.26;100.00
46023;BME280;31756;47.936;16.224;2022-11-04T03:00:06;97620.63;;;10.20;100.00
46023;BME280;31756;47.936;16.224;2022-11-04T03:02:38;97617.22;;;10.20;100.00
46023;BME280;31756;47.936;16.224;2022-11-04T03:05:07;97628.03;;;10.28;100.00
46023;BME280;31756;47.936;16.224;2022-11-04T03:07:36;97638.06;;;10.35;100.00
46023;BME280;31756;47.936;16.224;2022-11-04T03:10:35;97645.47;;;10.43;100.00
46023;BME280;31756;47.936;16.224;2022-11-04T03:13:16;97643.53;;;10.49;100.00
46023;BME280;31756;47.936;16.224;2022-11-04T03:15:58;97639.06;;;10.54;100.00
46023;BME280;31756;47.936;16.224;2022-11-04T03:18:33;97621.41;;;10.47;100.00
46023;BME280;31756;47.936;16.224;2022-11-04T03:21:03;97630.50;;;10.56;100.00
46023;BME280;31756;47.936;16.224;2022-11-04T03:23:31;97632.91;;;10.60;100.00
46023;BME280;31756;47.936;16.224;2022-11-04T03:26:08;97615.28;;;10.51;100.00
46023;BME280;31756;47.936;16.224;2022-11-04T03:28:47;97635.34;;;10.63;100.00
46023;BME280;31756;47.936;16.224;2022-11-04T03:31:31;97611.84;;;10.52;100.00
46023;BME280;31756;47.936;16.224;2022-11-04T03:34:01;97618.63;;;10.53;100.00
46023;BME280;31756;47.936;16.224;2022-11-04T03:36:27;97622.84;;;10.54;100.00
46023;BME280;31756;47.936;16.224;2022-11-04T03:38:54;97630.59;;;10.52;100.00
46023;BME280;31756;47.936;16.224;2022-11-04T03:41:48;97641.59;;;10.56;100.00
46023;BME280;31756;47.936;16.224;2022-11-04T03:44:13;97621.50;;;10.44;100.00
46023;BME280;31756;47.936;16.224;2022-11-04T03:46:39;97635.00;;;10.49;100.00
46023;BME280;31756;47.936;16.224;2022-11-04T03:49:05;97644.31;;;10.51;100.00
46023;BME280;31756;47.936;16.224;2022-11-04T03:51:32;97635.78;;;10.51;100.00
46023;BME280;31756;47.936;16.224;2022-11-04T03:53:58;97637.41;;;10.53;100.00
46023;BME280;31756;47.936;16.224;2022-11-04T03:56:39;97616.38;;;10.44;100.00
46023;BME280;31756;47.936;16.224;2022-11-04T03:59:29;97645.88;;;10.56;100.00
46023;BME280;31756;47.936;16.224;2022-11-04T04:08:07;97630.50;;;10.79;100.00
46023;BME280;31756;47.936;16.224;2022-11-04T04:10:41;97630.47;;;10.80;100.00
46023;BME280;31756;47.936;16.224;2022-11-04T04:14:14;97640.59;;;10.83;100.00
46023;BME280;31756;47.936;16.224;2022-11-04T04:16:17;97632.63;;;10.68;100.00
46023;BME280;31756;47.936;16.224;2022-11-04T04:18:52;97626.06;;;10.61;100.00
46023;BME280;31756;47.936;16.224;2022-11-04T04:21:25;97634.63;;;10.83;100.00
46023;BME280;31756;47.936;16.224;2022-11-04T04:23:55;97646.44;;;10.87;100.00
46023;BME280;31756;47.936;16.224;2022-11-04T04:26:43;97627.38;;;10.71;100.00
46023;BME280;31756;47.936;16.224;2022-11-04T04:29:30;97650.41;;;10.72;100.00
46023;BME280;31756;47.936;16.224;2022-11-04T04:31:56;97640.69;;;10.57;100.00
46023;BME280;31756;47.936;16.224;2022-11-04T04:34:27;97663.56;;;10.63;100.00
46023;BME280;31756;47.936;16.224;2022-11-04T04:37:01;97660.16;;;10.63;100.00
46023;BME280;31756;47.936;16.224;2022-11-04T04:39:44;97674.75;;;10.61;100.00
46023;BME280;31756;47.936;16.224;2022-11-04T04:42:31;97668.09;;;10.55;100.00
46023;BME280;31756;47.936;16.224;2022-11-04T04:45:35;97676.69;;;10.54;100.00
46023;BME280;31756;47.936;16.224;2022-11-04T04:48:02;97687.19;;;10.46;100.00
46023;BME280;31756;47.936;16.224;2022-11-04T04:50:40;97679.38;;;10.25;100.00
46023;BME280;31756;47.936;16.224;2022-11-04T04:53:06;97753.56;;;10.54;100.00
46023;BME280;31756;47.936;16.224;2022-11-04T04:55:32;97725.38;;;10.54;100.00
46023;BME280;31756;47.936;16.224;2022-11-04T04:57:58;97728.63;;;10.59;100.00
46023;BME280;31756;47.936;16.224;2022-11-04T05:00:24;97709.66;;;10.38;100.00
46023;BME280;31756;47.936;16.224;2022-11-04T05:02:49;97704.66;;;10.35;100.00
46023;BME280;31756;47.936;16.224;2022-11-04T05:05:15;97711.25;;;10.42;100.00
46023;BME280;31756;47.936;16.224;2022-11-04T05:07:41;97720.41;;;10.49;100.00
46023;BME280;31756;47.936;16.224;2022-11-04T05:10:11;97719.63;;;10.47;100.00
46023;BME280;31756;47.936;16.224;2022-11-04T05:12:38;97709.72;;;10.37;100.00
46023;BME280;31756;47.936;16.224;2022-11-04T05:15:24;97716.25;;;10.45;100.00
46023;BME280;31756;47.936;16.224;2022-11-04T05:17:57;97690.09;;;10.36;100.00
46023;BME280;31756;47.936;16.224;2022-11-04T05:20:24;97718.97;;;10.41;100.00
46023;BME280;31756;47.936;16.224;2022-11-04T05:22:50;97700.69;;;10.27;100.00
46023;BME280;31756;47.936;16.224;2022-11-04T05:25:15;97713.13;;;10.37;100.00
46023;BME280;31756;47.936;16.224;2022-11-04T05:27:41;97693.72;;;10.30;100.00
46023;BME280;31756;47.936;16.224;2022-11-04T05:30:08;97716.38;;;10.42;100.00
46023;BME280;31756;47.936;16.224;2022-11-04T05:32:34;97713.84;;;10.41;100.00
46023;BME280;31756;47.936;16.224;2022-11-04T05:35:00;97718.97;;;10.41;100.00
46023;BME280;31756;47.936;16.224;2022-11-04T05:37:25;97727.38;;;10.44;100.00
46023;BME280;31756;47.936;16.224;2022-11-04T05:39:51;97723.06;;;10.46;100.00
46023;BME280;31756;47.936;16.224;2022-11-04T05:42:17;97723.03;;;10.48;100.00
46023;BME280;31756;47.936;16.224;2022-11-04T05:44:43;97734.25;;;10.44;100.00
46023;BME280;31756;47.936;16.224;2022-11-04T05:47:09;97721.00;;;10.31;100.00
46023;BME280;31756;47.936;16.224;2022-11-04T05:49:34;97748.94;;;10.39;100.00
46023;BME280;31756;47.936;16.224;2022-11-04T05:52:00;97754.06;;;10.39;100.00
46023;BME280;31756;47.936;16.224;2022-11-04T05:54:25;97756.63;;;10.39;100.00
46023;BME280;31756;47.936;16.224;2022-11-04T05:56:52;97757.47;;;10.39;100.00
46023;BME280;31756;47.936;16.224;2022-11-04T05:59:17;97738.13;;;10.31;100.00
46023;BME280;31756;47.936;16.224;2022-11-04T06:01:43;97749.72;;;10.41;100.00
46023;BME280;31756;47.936;16.224;2022-11-04T06:04:14;97743.13;;;10.34;100.00
46023;BME280;31756;47.936;16.224;2022-11-04T06:06:40;97736.97;;;10.39;100.00
46023;BME280;31756;47.936;16.224;2022-11-04T06:09:06;97742.72;;;10.46;100.00
46023;BME280;31756;47.936;16.224;2022-11-04T06:11:33;97761.28;;;10.52;100.00
46023;BME280;31756;47.936;16.224;2022-11-04T06:13:59;97772.59;;;10.47;100.00
46023;BME280;31756;47.936;16.224;2022-11-04T06:16:24;97752.34;;;10.39;100.00
46023;BME280;31756;47.936;16.224;2022-11-04T06:18:50;97766.47;;;10.51;100.00
46023;BME280;31756;47.936;16.224;2022-11-04T06:21:18;97779.28;;;10.51;100.00
46023;BME280;31756;47.936;16.224;2022-11-04T06:23:46;97775.22;;;10.44;100.00
46023;BME280;31756;47.936;16.224;2022-11-04T06:26:12;97779.47;;;10.45;100.00
46023;BME280;31756;47.936;16.224;2022-11-04T06:28:38;97799.66;;;10.56;100.00
46023;BME280;31756;47.936;16.224;2022-11-04T06:31:06;97804.66;;;10.59;100.00
46023;BME280;31756;47.936;16.224;2022-11-04T06:33:32;97790.44;;;10.50;100.00
46023;BME280;31756;47.936;16.224;2022-11-04T06:36:02;97790.44;;;10.50;100.00
46023;BME280;31756;47.936;16.224;2022-11-04T06:38:30;97783.63;;;10.49;100.00
46023;BME280;31756;47.936;16.224;2022-11-04T06:40:56;97787.88;;;10.50;100.00
46023;BME280;31756;47.936;16.224;2022-11-04T06:43:21;97806.25;;;10.63;100.00
46023;BME280;31756;47.936;16.224;2022-11-04T06:45:57;97785.16;;;10.54;100.00
46023;BME280;31756;47.936;16.224;2022-11-04T06:48:24;97794.31;;;10.62;100.00
46023;BME280;31756;47.936;16.224;2022-11-04T06:50:50;97792.69;;;10.59;100.00
46023;BME280;31756;47.936;16.224;2022-11-04T06:53:16;97804.53;;;10.63;100.00
46023;BME280;31756;47.936;16.224;2022-11-04T06:55:41;97799.66;;;10.56;100.00
46023;BME280;31756;47.936;16.224;2022-11-04T06:58:08;97823.44;;;10.59;100.00
46023;BME280;31756;47.936;16.224;2022-11-04T07:00:33;97837.00;;;10.63;100.00
46023;BME280;31756;47.936;16.224;2022-11-04T07:02:59;97837.94;;;10.60;100.00
46023;BME280;31756;47.936;16.224;2022-11-04T07:05:24;97818.16;;;10.37;100.00
46023;BME280;31756;47.936;16.224;2022-11-04T07:07:50;97831.72;;;10.41;100.00
46023;BME280;31756;47.936;16.224;2022-11-04T07:10:16;97802.16;;;10.31;100.00
46023;BME280;31756;47.936;16.224;2022-11-04T07:12:42;97825.34;;;10.52;100.00
46023;BME280;31756;47.936;16.224;2022-11-04T07:15:08;97836.28;;;10.59;100.00
46023;BME280;31756;47.936;16.224;2022-11-04T07:17:34;97839.59;;;10.61;100.00
46023;BME280;31756;47.936;16.224;2022-11-04T07:20:00;97837.94;;;10.60;100.00
46023;BME280;31756;47.936;16.224;2022-11-04T07:22:26;97839.09;;;10.51;100.00
46023;BME280;31756;47.936;16.224;2022-11-04T07:24:51;97841.69;;;10.50;100.00
46023;BME280;31756;47.936;16.224;2022-11-04T07:27:17;97822.06;;;10.49;100.00
46023;BME280;31756;47.936;16.224;2022-11-04T07:29:42;97809.16;;;10.52;100.00
46023;BME280;31756;47.936;16.224;2022-11-04T07:32:08;97823.94;;;10.70;100.00
46023;BME280;31756;47.936;16.224;2022-11-04T07:34:34;97828.22;;;10.70;100.00
46023;BME280;31756;47.936;16.224;2022-11-04T07:36:59;97843.66;;;10.68;100.00
46023;BME280;31756;47.936;16.224;2022-11-04T07:39:25;97836.72;;;10.72;100.00
46023;BME280;31756;47.936;16.224;2022-11-04T07:41:51;97810.94;;;10.76;100.00
46023;BME280;31756;47.936;16.224;2022-11-04T07:44:17;97809.09;;;10.80;100.00
46023;BME280;31756;47.936;16.224;2022-11-04T07:46:42;97789.00;;;10.68;100.00
46023;BME280;31756;47.936;16.224;2022-11-04T07:49:08;97798.25;;;10.72;100.00
46023;BME280;31756;47.936;16.224;2022-11-04T07:51:34;97798.69;;;10.84;100.00
46023;BME280;31756;47.936;16.224;2022-11-04T07:53:59;97766.66;;;10.71;100.00
46023;BME280;31756;47.936;16.224;2022-11-04T07:56:26;97783.34;;;10.83;100.00
46023;BME280;31756;47.936;16.224;2022-11-04T07:58:52;97778.78;;;10.91;100.00
46023;BME280;31756;47.936;16.224;2022-11-04T08:01:20;97777.19;;;10.88;100.00
46023;BME280;31756;47.936;16.224;2022-11-04T08:03:48;97794.25;;;10.89;100.00
46023;BME280;31756;47.936;16.224;2022-11-04T08:06:18;97783.50;;;10.78;100.00
46023;BME280;31756;47.936;16.224;2022-11-04T08:08:44;97823.19;;;10.93;100.00
46023;BME280;31756;47.936;16.224;2022-11-04T08:11:12;97828.78;;;10.79;100.00
46023;BME280;31756;47.936;16.224;2022-11-04T08:13:39;97835.16;;;10.92;100.00
46023;BME280;31756;47.936;16.224;2022-11-04T08:16:07;97791.84;;;10.85;100.00
46023;BME280;31756;47.936;16.224;2022-11-04T08:18:34;97778.75;;;10.92;100.00
46023;BME280;31756;47.936;16.224;2022-11-04T08:21:00;97775.56;;;10.86;100.00
46023;BME280;31756;47.936;16.224;2022-11-04T08:23:27;97798.97;;;11.02;100.00
46023;BME280;31756;47.936;16.224;2022-11-04T08:25:53;97792.84;;;11.06;100.00
46023;BME280;31756;47.936;16.224;2022-11-04T08:28:19;97796.13;;;11.09;100.00
46023;BME280;31756;47.936;16.224;2022-11-04T08:30:59;97793.53;;;11.11;100.00
46023;BME280;31756;47.936;16.224;2022-11-04T08:33:27;97782.31;;;11.13;100.00
46023;BME280;31756;47.936;16.224;2022-11-04T08:35:57;97798.22;;;10.98;100.00
46023;BME280;31756;47.936;16.224;2022-11-04T08:38:23;97785.75;;;10.87;100.00
46023;BME280;31756;47.936;16.224;2022-11-04T08:40:49;97773.81;;;10.86;100.00
46023;BME280;31756;47.936;16.224;2022-11-04T08:43:14;97759.09;;;10.93;100.00
46023;BME280;31756;47.936;16.224;2022-11-04T08:45:42;97753.06;;;10.94;100.00
46023;BME280;31756;47.936;16.224;2022-11-04T08:48:08;97762.47;;;10.93;100.00
46023;BME280;31756;47.936;16.224;2022-11-04T08:50:34;97754.97;;;11.12;100.00
46023;BME280;31756;47.936;16.224;2022-11-04T08:53:01;97738.16;;;11.04;100.00
46023;BME280;31756;47.936;16.224;2022-11-04T08:55:31;97748.78;;;11.18;100.00
46023;BME280;31756;47.936;16.224;2022-11-04T08:57:57;97750.59;;;11.16;100.00
46023;BME280;31756;47.936;16.224;2022-11-04T09:00:23;97745.56;;;11.13;100.00
46023;BME280;31756;47.936;16.224;2022-11-04T09:02:49;97722.47;;;11.13;100.00
46023;BME280;31756;47.936;16.224;2022-11-04T09:05:15;97713.72;;;11.18;100.00
46023;BME280;31756;47.936;16.224;2022-11-04T09:07:41;97720.19;;;11.28;100.00
46023;BME280;31756;47.936;16.224;2022-11-04T09:10:08;97710.88;;;11.26;100.00
46023;BME280;31756;47.936;16.224;2022-11-04T09:12:34;97726.94;;;11.54;100.00
46023;BME280;31756;47.936;16.224;2022-11-04T09:15:01;97724.19;;;11.59;100.00
46023;BME280;31756;47.936;16.224;2022-11-04T09:17:26;97710.09;;;11.47;100.00
46023;BME280;31756;47.936;16.224;2022-11-04T09:19:53;97700.59;;;11.26;100.00
46023;BME280;31756;47.936;16.224;2022-11-04T09:22:18;97731.28;;;11.29;100.00
46023;BME280;31756;47.936;16.224;2022-11-04T09:24:44;97727.81;;;11.30;100.00
46023;BME280;31756;47.936;16.224;2022-11-04T09:27:09;97711.72;;;11.26;100.00
46023;BME280;31756;47.936;16.224;2022-11-04T09:29:35;97702.41;;;11.24;100.00
46023;BME280;31756;47.936;16.224;2022-11-04T09:32:02;97691.69;;;11.13;100.00
46023;BME280;31756;47.936;16.224;2022-11-04T09:34:28;97716.09;;;10.99;100.00
46023;BME280;31756;47.936;16.224;2022-11-04T09:36:55;97713.44;;;11.03;100.00
46023;BME280;31756;47.936;16.224;2022-11-04T09:39:24;97700.47;;;11.07;100.00
46023;BME280;31756;47.936;16.224;2022-11-04T09:41:52;97694.25;;;11.13;100.00
46023;BME280;31756;47.936;16.224;2022-11-04T09:47:07;97714.59;;;11.17;100.00
46023;BME280;31756;47.936;16.224;2022-11-04T09:49:36;97709.94;;;11.28;100.00
46023;BME280;31756;47.936;16.224;2022-11-04T09:52:10;97686.34;;;11.19;100.00
46023;BME280;31756;47.936;16.224;2022-11-04T09:54:47;97674.56;;;11.13;100.00
46023;BME280;31756;47.936;16.224;2022-11-04T09:57:17;97680.25;;;11.21;100.00
46023;BME280;31756;47.936;16.224;2022-11-04T09:59:43;97662.69;;;11.11;100.00
46023;BME280;31756;47.936;16.224;2022-11-04T10:18:19;97649.84;;;10.87;100.00
46023;BME280;31756;47.936;16.224;2022-11-04T10:21:10;97636.47;;;10.79;100.00
46023;BME280;31756;47.936;16.224;2022-11-04T10:23:54;97634.06;;;10.75;100.00
46023;BME280;31756;47.936;16.224;2022-11-04T10:26:35;97641.25;;;10.65;100.00
46023;BME280;31756;47.936;16.224;2022-11-04T10:29:10;97661.34;;;10.77;100.00
46023;BME280;31756;47.936;16.224;2022-11-04T10:31:38;97635.31;;;10.65;100.00
46023;BME280;31756;47.936;16.224;2022-11-04T10:34:10;97639.19;;;10.75;100.00
46023;BME280;31756;47.936;16.224;2022-11-04T10:36:39;97625.06;;;10.65;100.00
46023;BME280;31756;47.936;16.224;2022-11-04T10:39:24;97647.97;;;10.69;100.00
46023;BME280;31756;47.936;16.224;2022-11-04T10:41:50;97641.94;;;10.70;100.00
46023;BME280;31756;47.936;16.224;2022-11-04T10:47:12;97622.03;;;10.53;100.00
46023;BME280;31756;47.936;16.224;2022-11-04T10:50:01;97642.84;;;10.69;100.00
46023;BME280;31756;47.936;16.224;2022-11-04T10:52:33;97632.84;;;10.62;100.00
46023;BME280;31756;47.936;16.224;2022-11-04T10:55:00;97629.56;;;10.58;100.00
46023;BME280;31756;47.936;16.224;2022-11-04T10:57:26;97616.28;;;10.47;100.00
46023;BME280;31756;47.936;16.224;2022-11-04T11:07:40;97611.25;;;10.44;100.00
46023;BME280;31756;47.936;16.224;2022-11-04T11:10:16;97595.25;;;10.37;100.00
46023;BME280;31756;47.936;16.224;2022-11-04T11:12:42;97589.56;;;10.29;100.00
46023;BME280;31756;47.936;16.224;2022-11-04T11:15:34;97593.81;;;10.30;100.00
46023;BME280;31756;47.936;16.224;2022-11-04T11:20:33;97572.97;;;10.15;100.00
46023;BME280;31756;47.936;16.224;2022-11-04T11:23:03;97580.94;;;10.32;100.00
46023;BME280;31756;47.936;16.224;2022-11-04T11:25:35;97575.81;;;10.32;100.00
46023;BME280;31756;47.936;16.224;2022-11-04T11:28:12;97565.34;;;10.38;100.00
46023;BME280;31756;47.936;16.224;2022-11-04T11:33:27;97571.00;;;10.47;100.00
46023;BME280;31756;47.936;16.224;2022-11-04T11:36:06;97571.56;;;10.56;100.00
46023;BME280;31756;47.936;16.224;2022-11-04T11:38:51;97572.41;;;10.56;100.00
46023;BME280;31756;47.936;16.224;2022-11-04T11:41:18;97544.63;;;10.44;100.00
46023;BME280;31756;47.936;16.224;2022-11-04T11:43:51;97568.47;;;10.46;100.00
46023;BME280;31756;47.936;16.224;2022-11-04T11:46:51;97559.19;;;10.43;100.00
46023;BME280;31756;47.936;16.224;2022-11-04T11:49:27;97551.22;;;10.51;100.00
46023;BME280;31756;47.936;16.224;2022-11-04T11:51:55;97549.44;;;10.53;100.00
46023;BME280;31756;47.936;16.224;2022-11-04T11:54:41;97532.22;;;10.33;100.00
46023;BME280;31756;47.936;16.224;2022-11-04T11:57:28;97544.53;;;10.47;100.00
46023;BME280;31756;47.936;16.224;2022-11-04T12:00:03;97543.47;;;10.52;100.00
46023;BME280;31756;47.936;16.224;2022-11-04T12:05:11;97530.59;;;10.54;100.00
46023;BME280;31756;47.936;16.224;2022-11-04T12:07:54;97522.78;;;10.57;100.00
46023;BME280;31756;47.936;16.224;2022-11-04T12:10:38;97512.50;;;10.59;100.00
46023;BME280;31756;47.936;16.224;2022-11-04T12:13:15;97516.66;;;10.61;100.00
46023;BME280;31756;47.936;16.224;2022-11-04T12:15:52;97517.44;;;10.63;100.00
46023;BME280;31756;47.936;16.224;2022-11-04T12:21:23;97520.13;;;10.60;100.00
46023;BME280;31756;47.936;16.224;2022-11-04T12:24:12;97532.41;;;10.52;100.00
46023;BME280;31756;47.936;16.224;2022-11-04T12:38:19;97528.91;;;10.53;100.00
46023;BME280;31756;47.936;16.224;2022-11-04T12:46:11;97523.91;;;10.50;100.00
46023;BME280;31756;47.936;16.224;2022-11-04T12:51:40;97538.06;;;10.37;100.00
46023;BME280;31756;47.936;16.224;2022-11-04T12:57:14;97545.38;;;10.23;100.00
46023;BME280;31756;47.936;16.224;2022-11-04T13:00:06;97544.72;;;10.18;100.00
46023;BME280;31756;47.936;16.224;2022-11-04T13:02:48;97515.75;;;10.16;100.00
46023;BME280;31756;47.936;16.224;2022-11-04T13:11:11;97524.13;;;10.21;100.00
46023;BME280;31756;47.936;16.224;2022-11-04T13:14:03;97526.00;;;10.16;100.00
46023;BME280;31756;47.936;16.224;2022-11-04T13:16:37;97519.44;;;10.07;100.00
46023;BME280;31756;47.936;16.224;2022-11-04T13:19:09;97526.28;;;10.06;100.00
46023;BME280;31756;47.936;16.224;2022-11-04T13:21:39;97519.34;;;9.85;100.00
46023;BME280;31756;47.936;16.224;2022-11-04T13:24:21;97510.03;;;9.84;100.00
46023;BME280;31756;47.936;16.224;2022-11-04T13:26:50;97512.25;;;9.93;100.00
46023;BME280;31756;47.936;16.224;2022-11-04T13:29:18;97520.41;;;9.80;100.00
46023;BME280;31756;47.936;16.224;2022-11-04T13:32:09;97512.97;;;9.72;100.00
46023;BME280;31756;47.936;16.224;2022-11-04T13:35:07;97515.44;;;9.75;100.00
46023;BME280;31756;47.936;16.224;2022-11-04T13:37:40;97497.38;;;9.80;100.00
46023;BME280;31756;47.936;16.224;2022-11-04T13:40:18;97508.53;;;9.77;100.00
46023;BME280;31756;47.936;16.224;2022-11-04T13:43:05;97501.97;;;9.70;100.00
46023;BME280;31756;47.936;16.224;2022-11-04T13:45:55;97513.13;;;9.68;100.00
46023;BME280;31756;47.936;16.224;2022-11-04T13:48:33;97515.75;;;9.66;100.00
46023;BME280;31756;47.936;16.224;2022-11-04T13:51:09;97519.59;;;9.53;100.00
46023;BME280;31756;47.936;16.224;2022-11-04T13:56:09;97525.66;;;9.50;100.00
46023;BME280;31756;47.936;16.224;2022-11-04T13:58:52;97529.38;;;9.40;100.00
46023;BME280;31756;47.936;16.224;2022-11-04T14:06:59;97525.94;;;9.15;100.00
46023;BME280;31756;47.936;16.224;2022-11-04T14:14:54;97564.72;;;9.00;100.00
46023;BME280;31756;47.936;16.224;2022-11-04T14:22:33;97563.25;;;8.93;100.00
46023;BME280;31756;47.936;16.224;2022-11-04T14:27:53;97562.91;;;8.76;100.00
46023;BME280;31756;47.936;16.224;2022-11-04T14:30:27;97557.88;;;8.73;100.00
46023;BME280;31756;47.936;16.224;2022-11-04T14:32:55;97537.94;;;8.56;100.00
46023;BME280;31756;47.936;16.224;2022-11-04T14:35:24;97556.56;;;8.59;100.00
46023;BME280;31756;47.936;16.224;2022-11-04T14:37:51;97558.47;;;8.53;100.00
46023;BME280;31756;47.936;16.224;2022-11-04T14:40:27;97568.69;;;8.53;100.00
46023;BME280;31756;47.936;16.224;2022-11-04T14:42:53;97594.38;;;8.47;100.00
46023;BME280;31756;47.936;16.224;2022-11-04T14:45:25;97570.97;;;8.31;100.00
46023;BME280;31756;47.936;16.224;2022-11-04T14:48:08;97578.59;;;8.33;100.00
46023;BME280;31756;47.936;16.224;2022-11-04T14:50:42;97603.84;;;8.43;100.00
46023;BME280;31756;47.936;16.224;2022-11-04T14:53:15;97619.16;;;8.43;100.00
46023;BME280;31756;47.936;16.224;2022-11-04T14:55:44;97594.72;;;8.35;100.00
46023;BME280;31756;47.936;16.224;2022-11-04T14:58:27;97610.56;;;8.46;100.00
46023;BME280;31756;47.936;16.224;2022-11-04T15:01:00;97616.53;;;8.46;100.00
46023;BME280;31756;47.936;16.224;2022-11-04T15:03:33;97585.38;;;8.34;100.00
46023;BME280;31756;47.936;16.224;2022-11-04T15:06:02;97573.63;;;8.26;100.00
46023;BME280;31756;47.936;16.224;2022-11-04T15:11:11;97611.75;;;8.34;100.00